Time;durP1;ratioP1;P1;durP2;ratioP2;P2;SDS_P1;SDS_P2;PMS_P1;PMS_P2;Temp;Humidity;BMP_temperature;BMP_pressure;BME280_temperature;BME280_humidity;BME280_pressure;Samples;Min_cycle;Max_cycle;Signal;HPM_P1;HPM_P2
2022/12/29 00:01:35;;;;;;;;;;;;;;;28.01;61.54;101340.38;5055848;28;69311;-36
2022/12/29 00:04:06;;;;;;;;;;;;;;;28.05;61.67;101344.38;5051663;28;66666;-40
2022/12/29 00:06:43;;;;;;;;;;;;;;;28.11;61.89;101350.03;5055294;28;69978;-35
2022/12/29 00:09:15;;;;;;;;;;;;;;;28.12;62.59;101357.09;5053912;28;67079;-35
2022/12/29 00:11:46;;;;;;;;;;;;;;;28.16;63.31;101361.09;5051415;28;70109;-35
2022/12/29 00:17:06;;;;;;;;;;;;;;;28.20;64.01;101359.69;5050505;28;70588;-35
2022/12/29 00:36:30;;;;;;;;;;;;;;;28.35;64.80;101395.53;5053456;28;65686;-35
2022/12/29 00:44:40;;;;;;;;;;;;;;;28.22;63.46;101395.38;5052232;28;70265;-35
2022/12/29 00:47:11;;;;;;;;;;;;;;;28.21;63.33;101393.72;5059339;28;65546;-35
2022/12/29 00:49:42;;;;;;;;;;;;;;;28.24;62.26;101386.06;5056491;28;69279;-35
2022/12/29 00:52:13;;;;;;;;;;;;;;;28.24;62.24;101383.38;5057965;28;65632;-36
2022/12/29 00:54:46;;;;;;;;;;;;;;;28.24;62.06;101382.53;5058103;28;68818;-36
2022/12/29 00:57:17;;;;;;;;;;;;;;;28.24;62.33;101380.69;5052102;28;66989;-36
2022/12/29 00:59:47;;;;;;;;;;;;;;;28.26;61.79;101380.50;5055898;28;70387;-35
2022/12/29 01:02:18;;;;;;;;;;;;;;;28.27;61.39;101383.00;5057156;28;65914;-35
2022/12/29 01:04:49;;;;;;;;;;;;;;;28.28;61.72;101389.25;5055928;28;70421;-37
2022/12/29 01:07:19;;;;;;;;;;;;;;;28.28;61.40;101391.94;5052556;28;65686;-38
2022/12/29 01:12:42;;;;;;;;;;;;;;;28.30;61.44;101403.38;5050010;28;66301;-36
2022/12/29 01:15:14;;;;;;;;;;;;;;;28.30;60.94;101406.06;5057410;28;70008;-36
2022/12/29 01:17:46;;;;;;;;;;;;;;;28.29;60.91;101407.09;5055459;28;66509;-36
2022/12/29 01:20:17;;;;;;;;;;;;;;;28.31;61.18;101410.44;5059107;28;69738;-35
2022/12/29 01:22:48;;;;;;;;;;;;;;;28.33;60.58;101427.25;5059265;28;67084;-36
2022/12/29 01:25:21;;;;;;;;;;;;;;;28.32;61.14;101422.91;5049167;28;70285;-35
2022/12/29 01:27:51;;;;;;;;;;;;;;;28.33;60.86;101419.16;5054573;28;66798;-37
2022/12/29 01:30:22;;;;;;;;;;;;;;;28.34;60.88;101415.47;5054511;28;69001;-36
2022/12/29 01:32:54;;;;;;;;;;;;;;;28.35;60.87;101417.13;5059045;28;66033;-35
2022/12/29 01:35:25;;;;;;;;;;;;;;;28.36;60.63;101424.22;5056372;28;69495;-36
2022/12/29 01:37:58;;;;;;;;;;;;;;;28.37;60.47;101430.44;5056717;28;65197;-36
2022/12/29 01:40:29;;;;;;;;;;;;;;;28.37;60.91;101425.88;5055072;28;70683;-36
2022/12/29 01:43:00;;;;;;;;;;;;;;;28.37;60.78;101431.28;5055385;28;66726;-34
2022/12/29 01:45:31;;;;;;;;;;;;;;;28.37;60.52;101423.19;5054879;28;69923;-36
2022/12/29 01:48:04;;;;;;;;;;;;;;;28.39;60.51;101426.53;5056732;28;64445;-36
2022/12/29 01:50:40;;;;;;;;;;;;;;;28.40;60.63;101420.09;5051472;28;70834;-36
2022/12/29 01:53:31;;;;;;;;;;;;;;;28.39;60.09;101423.81;5056075;28;66684;-36
2022/12/29 01:56:04;;;;;;;;;;;;;;;28.38;60.37;101405.94;5055031;28;70756;-36
2022/12/29 01:58:38;;;;;;;;;;;;;;;28.42;59.88;101412.69;5063753;27;65691;-36
2022/12/29 02:01:08;;;;;;;;;;;;;;;28.42;60.11;101415.38;5055818;28;69040;-36
2022/12/29 02:03:39;;;;;;;;;;;;;;;28.43;60.13;101414.34;5058187;28;65610;-37
2022/12/29 02:06:22;;;;;;;;;;;;;;;28.44;60.04;101416.00;5058365;28;69942;-35
2022/12/29 02:08:53;;;;;;;;;;;;;;;28.45;59.58;101412.28;5049101;28;66612;-36
2022/12/29 02:11:26;;;;;;;;;;;;;;;28.44;59.43;101405.22;5052247;28;70180;-36
2022/12/29 02:13:57;;;;;;;;;;;;;;;28.46;59.69;101416.66;5050647;28;66525;-35
2022/12/29 02:16:40;;;;;;;;;;;;;;;28.47;59.37;101410.25;5050508;28;69273;-37
2022/12/29 02:19:15;;;;;;;;;;;;;;;28.49;59.24;101413.56;5050891;28;66223;-36
2022/12/29 02:21:59;;;;;;;;;;;;;;;28.50;59.01;101415.25;5055991;28;70211;-36
2022/12/29 02:24:30;;;;;;;;;;;;;;;28.51;59.30;101411.53;5033622;28;65259;-35
2022/12/29 02:27:19;;;;;;;;;;;;;;;28.51;58.88;101408.81;5057184;28;70105;-35
2022/12/29 02:30:05;;;;;;;;;;;;;;;28.54;59.31;101409.47;5044236;28;65941;-36
2022/12/29 02:32:38;;;;;;;;;;;;;;;28.55;58.78;101408.44;5049641;28;70118;-37
2022/12/29 02:35:15;;;;;;;;;;;;;;;28.57;58.81;101403.69;5058540;28;65626;-37
2022/12/29 02:38:03;;;;;;;;;;;;;;;28.59;59.18;101415.13;5057416;28;69999;-36
2022/12/29 02:40:43;;;;;;;;;;;;;;;28.59;58.95;101412.44;5049432;28;66550;-36
2022/12/29 02:43:22;;;;;;;;;;;;;;;28.61;58.79;101415.75;5056240;28;69469;-36
2022/12/29 02:46:19;;;;;;;;;;;;;;;28.63;59.06;101421.81;5067874;27;66619;-37
2022/12/29 02:49:04;;;;;;;;;;;;;;;28.64;58.99;101415.38;5058257;28;70641;-35
2022/12/29 02:51:44;;;;;;;;;;;;;;;28.66;58.95;101407.94;5056162;28;66772;-36
2022/12/29 02:57:12;;;;;;;;;;;;;;;28.69;58.38;101407.53;5058842;28;65320;-36
2022/12/29 02:59:44;;;;;;;;;;;;;;;28.70;58.24;101393.84;5056662;28;69191;-36
2022/12/29 03:02:18;;;;;;;;;;;;;;;28.72;58.72;101401.75;5053109;28;65508;-41
2022/12/29 03:04:52;;;;;;;;;;;;;;;28.73;58.72;101392.63;5047798;28;70502;-35
2022/12/29 03:07:23;;;;;;;;;;;;;;;28.75;58.26;101395.97;5054642;28;66054;-36
2022/12/29 03:10:17;;;;;;;;;;;;;;;28.77;58.19;101393.91;5070831;27;69749;-36
2022/12/29 03:18:41;;;;;;;;;;;;;;;28.82;57.85;101385.25;5055480;28;67089;-37
2022/12/29 03:21:16;;;;;;;;;;;;;;;28.84;58.40;101383.19;5061313;27;71138;-36
2022/12/29 03:23:49;;;;;;;;;;;;;;;28.86;58.40;101383.81;5043596;28;66354;-35
2022/12/29 03:26:21;;;;;;;;;;;;;;;28.87;58.43;101383.63;5050336;28;69866;-40
2022/12/29 03:28:53;;;;;;;;;;;;;;;28.90;57.88;101383.22;5057164;28;66450;-39
2022/12/29 03:31:27;;;;;;;;;;;;;;;28.92;58.36;101380.34;5054101;28;70687;-38
2022/12/29 03:33:58;;;;;;;;;;;;;;;28.93;58.01;101372.03;5052136;28;66610;-37
2022/12/29 03:36:48;;;;;;;;;;;;;;;28.93;57.66;101365.81;5053932;28;70010;-40
2022/12/29 03:39:23;;;;;;;;;;;;;;;28.99;57.92;101369.59;5048095;28;66446;-36
2022/12/29 03:42:05;;;;;;;;;;;;;;;28.99;57.87;101359.63;5046542;28;70854;-39
2022/12/29 03:44:37;;;;;;;;;;;;;;;29.03;57.54;101354.66;5053196;28;66174;-37
2022/12/29 03:47:10;;;;;;;;;;;;;;;29.04;58.14;101350.97;5050602;28;70683;-41
2022/12/29 03:49:42;;;;;;;;;;;;;;;29.07;57.51;101345.16;5055262;28;66305;-37
2022/12/29 03:52:13;;;;;;;;;;;;;;;29.07;57.54;101339.75;5057356;28;70268;-36
2022/12/29 03:54:46;;;;;;;;;;;;;;;29.10;57.96;101333.97;5052077;28;66042;-36
2022/12/29 03:57:17;;;;;;;;;;;;;;;29.13;57.44;101325.47;5054824;28;70293;-37
2022/12/29 04:00:07;;;;;;;;;;;;;;;29.15;57.74;101320.72;5056766;28;66066;-36
2022/12/29 04:02:47;;;;;;;;;;;;;;;29.16;57.64;101312.38;5054663;28;70086;-37
2022/12/29 04:05:24;;;;;;;;;;;;;;;29.19;57.62;101316.56;5053557;28;66863;-40
2022/12/29 04:07:56;;;;;;;;;;;;;;;29.22;57.67;101310.75;5067692;27;69634;-35
2022/12/29 04:10:26;;;;;;;;;;;;;;;29.25;57.83;101310.34;5054990;28;66829;-37
2022/12/29 04:13:00;;;;;;;;;;;;;;;29.27;57.43;101296.66;5052816;28;69749;-38
2022/12/29 04:15:32;;;;;;;;;;;;;;;29.28;57.43;101301.88;5069919;27;66341;-37
2022/12/29 04:18:03;;;;;;;;;;;;;;;29.31;57.33;101298.78;5058470;28;70220;-37
2022/12/29 04:23:23;;;;;;;;;;;;;;;29.35;57.21;101280.28;5058960;28;70247;-39
2022/12/29 04:25:54;;;;;;;;;;;;;;;29.37;56.44;101284.44;5069905;27;65912;-36
2022/12/29 04:28:27;;;;;;;;;;;;;;;29.39;56.50;101274.28;5054354;28;70358;-37
2022/12/29 04:31:12;;;;;;;;;;;;;;;29.42;56.46;101272.19;5054817;28;66353;-38
2022/12/29 04:33:45;;;;;;;;;;;;;;;29.43;56.61;101260.38;5066873;27;69768;-38
2022/12/29 04:36:15;;;;;;;;;;;;;;;29.46;56.40;101246.44;5056780;28;65459;-37
2022/12/29 04:38:46;;;;;;;;;;;;;;;29.48;55.95;101245.22;5058238;28;70730;-40
2022/12/29 04:41:17;;;;;;;;;;;;;;;29.49;56.49;101240.63;5052923;28;66338;-39
2022/12/29 04:43:49;;;;;;;;;;;;;;;29.53;55.97;101231.06;5050081;28;70203;-39
2022/12/29 04:46:49;;;;;;;;;;;;;;;29.55;55.97;101229.00;5042337;28;66833;-36
2022/12/29 04:49:55;;;;;;;;;;;;;;;29.57;55.63;101226.94;5024056;28;70558;-37
2022/12/29 04:52:35;;;;;;;;;;;;;;;29.60;55.55;101215.72;5055939;28;66600;-35
2022/12/29 04:55:07;;;;;;;;;;;;;;;29.61;56.00;101211.97;5071758;27;69254;-37
2022/12/29 04:57:37;;;;;;;;;;;;;;;29.63;55.90;101207.22;5058910;28;66176;-38
2022/12/29 05:00:12;;;;;;;;;;;;;;;29.61;55.56;101196.59;5053920;28;70668;-38
2022/12/29 05:02:43;;;;;;;;;;;;;;;29.67;56.00;101195.00;5058908;28;66253;-38
2022/12/29 05:05:16;;;;;;;;;;;;;;;29.69;55.54;101194.75;5055224;28;70236;-39
2022/12/29 05:07:50;;;;;;;;;;;;;;;29.69;55.97;101190.19;5056524;28;66265;-36
2022/12/29 05:10:21;;;;;;;;;;;;;;;29.72;55.73;101178.97;5058556;28;70830;-37
2022/12/29 05:12:55;;;;;;;;;;;;;;;29.73;55.36;101174.41;5071332;27;66201;-37
2022/12/29 05:15:25;;;;;;;;;;;;;;;29.73;55.79;101167.13;5055567;28;69785;-37
2022/12/29 05:17:56;;;;;;;;;;;;;;;29.76;55.89;101160.47;5036081;28;65927;-37
2022/12/29 05:20:28;;;;;;;;;;;;;;;29.77;55.76;101157.53;5054936;28;69827;-38
2022/12/29 05:22:59;;;;;;;;;;;;;;;29.78;55.38;101152.97;5055788;28;66244;-38
2022/12/29 05:25:30;;;;;;;;;;;;;;;29.79;55.49;101158.19;5056243;28;70522;-36
2022/12/29 05:28:11;;;;;;;;;;;;;;;29.81;55.46;101155.25;5046706;28;66235;-38
2022/12/29 05:30:50;;;;;;;;;;;;;;;29.82;55.47;101151.53;5055677;28;70341;-39
2022/12/29 05:33:21;;;;;;;;;;;;;;;29.82;54.87;101149.66;5057314;28;66421;-40
2022/12/29 05:35:53;;;;;;;;;;;;;;;29.83;54.86;101140.50;5048737;28;69868;-37
2022/12/29 05:38:24;;;;;;;;;;;;;;;29.84;54.85;101131.34;5056333;28;66065;-37
2022/12/29 05:40:55;;;;;;;;;;;;;;;29.84;54.92;101131.34;5060066;28;70524;-36
2022/12/29 05:44:02;;;;;;;;;;;;;;;29.84;55.10;101120.53;5059050;28;67108;-36
2022/12/29 05:46:41;;;;;;;;;;;;;;;29.87;55.39;101118.47;5059213;28;70727;-36
2022/12/29 05:49:18;;;;;;;;;;;;;;;29.87;55.02;101104.94;5053942;28;66677;-37
2022/12/29 05:52:08;;;;;;;;;;;;;;;29.89;55.50;101110.94;5057910;28;69707;-39
2022/12/29 05:54:40;;;;;;;;;;;;;;;29.90;55.30;101107.22;5049735;28;67207;-35
2022/12/29 05:57:14;;;;;;;;;;;;;;;29.91;55.17;101098.88;5054810;28;69228;-37
2022/12/29 05:59:49;;;;;;;;;;;;;;;29.92;54.85;101088.91;5057555;28;66124;-39
2022/12/29 06:02:21;;;;;;;;;;;;;;;29.94;55.16;101084.13;5057106;28;69447;-37
2022/12/29 06:04:53;;;;;;;;;;;;;;;29.95;55.33;101088.47;5056247;28;66123;-38
2022/12/29 06:07:24;;;;;;;;;;;;;;;29.96;54.82;101079.34;5055413;28;71405;-36
2022/12/29 06:09:55;;;;;;;;;;;;;;;29.98;54.64;101069.16;5047169;28;66342;-36
2022/12/29 06:12:28;;;;;;;;;;;;;;;30.00;54.50;101070.56;5057525;28;68046;-35
2022/12/29 06:14:59;;;;;;;;;;;;;;;30.01;54.93;101060.63;5057442;28;65252;-37
2022/12/29 06:17:31;;;;;;;;;;;;;;;30.02;55.12;101049.56;5052988;28;68674;-36
2022/12/29 06:20:02;;;;;;;;;;;;;;;30.03;54.56;101048.53;5055797;28;65525;-39
2022/12/29 06:22:33;;;;;;;;;;;;;;;30.05;54.38;101045.63;5036180;28;70424;-39
2022/12/29 06:25:05;;;;;;;;;;;;;;;30.06;54.30;101040.00;5053519;28;66342;-38
2022/12/29 06:27:36;;;;;;;;;;;;;;;30.08;54.47;101031.66;5056045;28;70129;-37
2022/12/29 06:30:08;;;;;;;;;;;;;;;30.10;54.95;101036.88;5059882;28;66125;-36
2022/12/29 06:32:40;;;;;;;;;;;;;;;30.09;54.33;101024.38;5056387;28;70670;-36
2022/12/29 06:35:13;;;;;;;;;;;;;;;30.12;54.54;101019.41;5057799;28;66026;-36
2022/12/29 06:37:51;;;;;;;;;;;;;;;30.14;54.20;101022.69;5056940;28;68156;-40
2022/12/29 06:40:22;;;;;;;;;;;;;;;30.16;54.16;101015.19;5039190;28;66656;-36
2022/12/29 06:43:11;;;;;;;;;;;;;;;30.19;54.02;101014.78;5056128;28;69437;-36
2022/12/29 06:46:05;;;;;;;;;;;;;;;30.22;54.31;101017.09;5057822;28;66154;-35
2022/12/29 06:48:36;;;;;;;;;;;;;;;30.23;54.57;101012.53;5054508;28;68407;-36
2022/12/29 06:51:07;;;;;;;;;;;;;;;30.25;54.12;101007.72;5058832;28;66839;-36
2022/12/29 06:53:38;;;;;;;;;;;;;;;30.27;54.24;101006.47;5056027;28;69408;-35
2022/12/29 06:56:10;;;;;;;;;;;;;;;30.30;53.73;100998.97;5052099;28;66439;-36
2022/12/29 06:58:40;;;;;;;;;;;;;;;30.32;54.12;101003.13;5054377;28;70217;-36
2022/12/29 07:01:11;;;;;;;;;;;;;;;30.35;53.80;100988.34;5053563;28;65976;-36
2022/12/29 07:03:43;;;;;;;;;;;;;;;30.37;54.05;100994.34;5059356;28;69265;-39
2022/12/29 07:06:13;;;;;;;;;;;;;;;30.39;54.21;100981.44;5056653;28;65705;-36
2022/12/29 07:08:45;;;;;;;;;;;;;;;30.42;54.15;100975.59;5058320;28;69222;-36
2022/12/29 07:11:16;;;;;;;;;;;;;;;30.43;53.62;100974.56;5059167;28;65873;-39
2022/12/29 07:13:46;;;;;;;;;;;;;;;30.45;53.88;100965.19;5050087;28;70310;-35
2022/12/29 07:16:17;;;;;;;;;;;;;;;30.48;54.14;100970.16;5057896;28;65524;-38
2022/12/29 07:18:48;;;;;;;;;;;;;;;30.49;53.34;100955.56;5055290;28;69372;-38
2022/12/29 07:21:19;;;;;;;;;;;;;;;30.53;53.47;100961.38;5049885;28;66970;-38
2022/12/29 07:23:49;;;;;;;;;;;;;;;30.54;53.82;100952.22;5055676;28;70075;-37
2022/12/29 07:26:20;;;;;;;;;;;;;;;30.58;53.37;100953.44;5053404;28;66497;-36
2022/12/29 07:28:51;;;;;;;;;;;;;;;30.61;53.42;100947.59;5054413;28;69986;-39
2022/12/29 07:31:22;;;;;;;;;;;;;;;30.63;53.10;100945.50;5057029;28;66970;-36
2022/12/29 07:33:53;;;;;;;;;;;;;;;30.65;52.96;100943.41;5058991;28;69150;-36
2022/12/29 07:36:23;;;;;;;;;;;;;;;30.68;53.08;100942.97;5058404;28;66694;-36
2022/12/29 07:39:03;;;;;;;;;;;;;;;30.71;52.96;100937.13;5057578;28;69854;-36
2022/12/29 07:41:34;;;;;;;;;;;;;;;30.74;53.04;100946.69;5055032;28;66279;-35
2022/12/29 07:44:05;;;;;;;;;;;;;;;30.77;52.86;100940.84;5058126;28;69313;-36
2022/12/29 07:46:58;;;;;;;;;;;;;;;30.80;52.78;100935.00;5053527;28;65857;-37
2022/12/29 07:49:30;;;;;;;;;;;;;;;30.82;53.04;100927.50;5057603;28;69257;-35
2022/12/29 07:52:01;;;;;;;;;;;;;;;30.85;52.90;100926.25;5059407;28;66420;-36
2022/12/29 07:54:31;;;;;;;;;;;;;;;30.88;52.55;100931.22;5056816;28;69676;-37
2022/12/29 07:57:03;;;;;;;;;;;;;;;30.90;52.59;100929.13;5057488;28;66589;-38
2022/12/29 07:59:34;;;;;;;;;;;;;;;30.94;52.94;100930.34;5055487;28;70872;-36
2022/12/29 08:02:04;;;;;;;;;;;;;;;30.96;52.57;100928.25;5058284;28;66597;-36
2022/12/29 08:04:36;;;;;;;;;;;;;;;30.98;52.43;100931.56;5058471;28;69313;-36
2022/12/29 08:07:06;;;;;;;;;;;;;;;30.97;52.79;100929.91;5057266;28;66978;-36
2022/12/29 08:09:38;;;;;;;;;;;;;;;31.01;52.60;100920.28;5043746;28;69612;-40
2022/12/29 08:12:09;;;;;;;;;;;;;;;31.03;52.32;100923.59;5051246;28;66304;-37
2022/12/29 08:14:40;;;;;;;;;;;;;;;31.05;52.52;100924.22;5045387;28;69761;-36
2022/12/29 08:17:11;;;;;;;;;;;;;;;31.07;52.49;100929.41;5051180;28;65725;-36
2022/12/29 08:19:42;;;;;;;;;;;;;;;31.08;51.89;100931.88;5053669;28;69870;-36
2022/12/29 08:22:14;;;;;;;;;;;;;;;31.09;52.00;100928.16;5055961;28;64752;-37
2022/12/29 08:24:44;;;;;;;;;;;;;;;31.10;51.82;100924.38;5059453;28;70000;-35
2022/12/29 08:27:16;;;;;;;;;;;;;;;31.13;51.83;100934.78;5055847;28;65664;-36
2022/12/29 08:29:49;;;;;;;;;;;;;;;31.13;52.00;100934.78;5055517;28;70572;-36
2022/12/29 08:32:20;;;;;;;;;;;;;;;31.14;51.65;100930.19;5056986;28;66702;-37
2022/12/29 08:34:51;;;;;;;;;;;;;;;31.15;51.76;100921.03;5056231;28;68905;-35
2022/12/29 08:37:22;;;;;;;;;;;;;;;31.15;51.65;100927.25;5054970;28;65983;-35
2022/12/29 08:40:03;;;;;;;;;;;;;;;31.16;51.75;100928.91;5053708;28;69358;-36
2022/12/29 08:42:34;;;;;;;;;;;;;;;31.19;51.71;100930.34;5051731;28;65985;-35
2022/12/29 08:45:05;;;;;;;;;;;;;;;31.20;51.90;100928.47;5052261;28;70864;-36
2022/12/29 08:47:36;;;;;;;;;;;;;;;31.21;51.75;100933.69;5051443;28;67208;-36
2022/12/29 08:50:07;;;;;;;;;;;;;;;31.21;51.68;100941.81;5050690;28;71958;-35
2022/12/29 08:52:39;;;;;;;;;;;;;;;31.22;51.75;100948.03;5052219;28;42958;-38
2022/12/29 08:55:10;;;;;;;;;;;;;;;31.22;51.49;100948.88;5054517;28;69279;-38
2022/12/29 08:57:42;;;;;;;;;;;;;;;31.23;51.91;100949.69;5020121;28;66627;-35
2022/12/29 09:00:20;;;;;;;;;;;;;;;31.22;51.48;100948.03;5047176;28;69331;-36
2022/12/29 09:02:53;;;;;;;;;;;;;;;31.23;51.83;100958.69;5035361;28;66419;-36
2022/12/29 09:05:23;;;;;;;;;;;;;;;31.23;51.58;100953.25;5059316;28;69280;-38
2022/12/29 09:07:54;;;;;;;;;;;;;;;31.24;51.33;100959.50;5060418;28;66754;-35
2022/12/29 09:10:25;;;;;;;;;;;;;;;31.24;51.72;100962.22;5056616;28;70294;-37
2022/12/29 09:12:55;;;;;;;;;;;;;;;31.24;51.83;100962.22;5059244;28;66814;-35
2022/12/29 09:15:26;;;;;;;;;;;;;;;31.25;52.28;100969.28;5049775;28;70529;-36
2022/12/29 09:17:57;;;;;;;;;;;;;;;31.08;52.92;100975.25;5051840;28;67037;-36
2022/12/29 09:20:28;;;;;;;;;;;;;;;31.01;53.92;100971.75;5050588;28;70525;-35
2022/12/29 09:22:58;;;;;;;;;;;;;;;30.92;54.20;100975.75;5053152;28;64237;-37
2022/12/29 09:25:29;;;;;;;;;;;;;;;30.86;54.72;100976.66;5052254;28;69648;-36
2022/12/29 09:28:02;;;;;;;;;;;;;;;30.85;54.20;100980.41;5054501;28;64969;-36
2022/12/29 09:30:33;;;;;;;;;;;;;;;30.79;54.71;100973.13;5053535;28;69034;-35
2022/12/29 09:33:04;;;;;;;;;;;;;;;30.78;54.82;100968.75;5051046;28;66260;-37
2022/12/29 09:35:34;;;;;;;;;;;;;;;30.76;54.49;100971.69;5052746;28;70048;-37
2022/12/29 09:38:05;;;;;;;;;;;;;;;30.74;54.68;100984.59;5054980;28;66413;-36
2022/12/29 09:40:36;;;;;;;;;;;;;;;30.72;54.70;100982.09;5054061;28;70178;-35
2022/12/29 09:43:25;;;;;;;;;;;;;;;30.70;55.12;100984.22;5051132;28;65405;-35
2022/12/29 09:46:03;;;;;;;;;;;;;;;30.70;55.25;100995.06;5054715;28;70193;-36
2022/12/29 09:48:37;;;;;;;;;;;;;;;30.67;54.99;100992.78;5054857;28;66857;-36
2022/12/29 09:51:11;;;;;;;;;;;;;;;30.68;55.19;100996.31;5053491;28;70365;-33
2022/12/29 09:53:46;;;;;;;;;;;;;;;30.65;55.50;101005.69;5052851;28;66528;-35
2022/12/29 09:56:22;;;;;;;;;;;;;;;30.65;55.62;101008.41;5052208;28;70555;-34
2022/12/29 09:58:57;;;;;;;;;;;;;;;30.64;55.30;101020.25;5051925;28;66664;-35
2022/12/29 10:01:34;;;;;;;;;;;;;;;30.62;55.58;101019.66;5052166;28;70144;-34
2022/12/29 10:04:07;;;;;;;;;;;;;;;30.60;55.97;101021.75;5052818;28;66885;-35
2022/12/29 10:06:54;;;;;;;;;;;;;;;30.62;55.69;101030.50;5053256;28;70234;-34
2022/12/29 10:10:14;;;;;;;;;;;;;;;30.61;56.02;101034.22;5052555;28;66629;-35
2022/12/29 10:12:45;;;;;;;;;;;;;;;30.60;56.33;101038.00;5004143;28;70794;-34
2022/12/29 10:15:21;;;;;;;;;;;;;;;30.61;55.95;101038.81;5058350;28;66669;-35
2022/12/29 10:17:52;;;;;;;;;;;;;;;30.58;56.81;101045.50;5049784;28;69897;-40
2022/12/29 10:20:26;;;;;;;;;;;;;;;30.55;56.80;101054.03;5051374;28;66367;-35
2022/12/29 10:22:57;;;;;;;;;;;;;;;30.55;56.83;101051.34;5052217;28;70238;-35
2022/12/29 10:25:31;;;;;;;;;;;;;;;30.54;56.66;101056.97;5055169;28;66869;-35
2022/12/29 10:28:06;;;;;;;;;;;;;;;30.59;55.94;101057.16;5059714;28;70449;-33
2022/12/29 10:30:37;;;;;;;;;;;;;;;30.60;55.08;101065.06;5051951;28;67025;-34
2022/12/29 10:33:12;;;;;;;;;;;;;;;30.64;55.19;101069.00;5046636;28;70356;-37
2022/12/29 10:35:43;;;;;;;;;;;;;;;30.66;55.15;101074.22;5067938;28;66314;-35
2022/12/29 10:38:29;;;;;;;;;;;;;;;30.66;55.89;101069.63;5056779;28;71619;-34
2022/12/29 10:41:05;;;;;;;;;;;;;;;30.66;57.02;101080.44;5054334;28;66645;-37
2022/12/29 10:43:42;;;;;;;;;;;;;;;30.64;57.62;101082.53;5051399;28;70327;-35
2022/12/29 10:46:16;;;;;;;;;;;;;;;30.65;57.96;101095.03;5056045;28;66660;-35
2022/12/29 10:48:48;;;;;;;;;;;;;;;30.68;57.32;101088.38;5057072;28;70130;-37
2022/12/29 10:51:23;;;;;;;;;;;;;;;30.77;57.48;101105.22;5052131;28;66826;-37
2022/12/29 10:54:00;;;;;;;;;;;;;;;30.81;56.83;101109.16;5047021;28;70374;-35
2022/12/29 10:56:36;;;;;;;;;;;;;;;30.83;56.61;101112.50;5055288;28;65938;-37
2022/12/29 10:59:14;;;;;;;;;;;;;;;30.86;57.29;101117.47;5058967;28;69262;-39
2022/12/29 11:01:52;;;;;;;;;;;;;;;30.88;56.92;101110.81;5050919;28;66141;-37
2022/12/29 11:04:33;;;;;;;;;;;;;;;30.91;57.13;101120.38;5056735;28;70030;-37
2022/12/29 11:07:03;;;;;;;;;;;;;;;30.93;57.46;101118.31;5047351;28;65043;-35
2022/12/29 11:09:40;;;;;;;;;;;;;;;30.93;56.75;101123.72;5052980;28;69163;-37
2022/12/29 11:12:23;;;;;;;;;;;;;;;30.94;56.97;101119.97;5049698;28;66569;-37
2022/12/29 11:15:03;;;;;;;;;;;;;;;30.96;56.66;101128.69;5053603;28;70158;-36
2022/12/29 11:17:48;;;;;;;;;;;;;;;30.97;56.78;101133.06;5053525;27;66027;-38
2022/12/29 11:20:27;;;;;;;;;;;;;;;30.98;56.35;101133.91;5057521;28;70800;-40
2022/12/29 11:22:58;;;;;;;;;;;;;;;30.98;56.41;101147.44;5050854;28;66288;-40
2022/12/29 11:25:29;;;;;;;;;;;;;;;30.98;56.88;101148.28;5048503;28;70680;-38
2022/12/29 11:28:16;;;;;;;;;;;;;;;30.98;56.51;101142.88;5053219;28;66609;-36
2022/12/29 11:30:59;;;;;;;;;;;;;;;30.98;56.35;101152.84;5051061;28;70133;-37
2022/12/29 11:33:30;;;;;;;;;;;;;;;30.98;56.24;101142.88;5053076;28;65625;-40
2022/12/29 11:36:07;;;;;;;;;;;;;;;30.99;56.35;101155.38;5049386;28;70193;-38
2022/12/29 11:38:40;;;;;;;;;;;;;;;31.00;56.35;101158.91;5047797;28;66017;-38
2022/12/29 11:41:12;;;;;;;;;;;;;;;30.99;56.10;101158.06;5050041;28;69511;-39
2022/12/29 11:43:44;;;;;;;;;;;;;;;31.00;56.00;101157.00;5054154;28;66187;-37
2022/12/29 11:46:20;;;;;;;;;;;;;;;30.99;55.90;101158.06;5054484;28;70134;-39
2022/12/29 11:48:52;;;;;;;;;;;;;;;30.99;56.29;101155.38;5045060;28;66837;-36
2022/12/29 11:51:25;;;;;;;;;;;;;;;30.98;56.08;101151.00;5038841;28;70574;-37
2022/12/29 11:53:58;;;;;;;;;;;;;;;30.97;56.81;101152.03;5048370;28;65666;-35
2022/12/29 11:56:34;;;;;;;;;;;;;;;30.97;56.09;101160.16;5057458;28;69212;-35
2022/12/29 11:59:39;;;;;;;;;;;;;;;30.97;56.64;101162.03;5049238;28;65915;-35
2022/12/29 12:02:28;;;;;;;;;;;;;;;30.98;56.56;101169.97;5052409;28;70141;-35
2022/12/29 12:05:12;;;;;;;;;;;;;;;30.98;56.17;101179.94;5032264;28;65969;-35
2022/12/29 12:07:46;;;;;;;;;;;;;;;30.93;56.81;101176.00;5053468;28;68781;-40
2022/12/29 12:10:19;;;;;;;;;;;;;;;30.97;56.72;101189.97;5052701;28;66164;-36
2022/12/29 12:12:53;;;;;;;;;;;;;;;30.96;56.90;101182.88;5070012;27;70255;-37
2022/12/29 12:15:36;;;;;;;;;;;;;;;30.96;56.65;101188.31;5048376;28;66741;-36
2022/12/29 12:18:22;;;;;;;;;;;;;;;30.95;56.72;101192.03;5053762;28;70584;-40
2022/12/29 12:21:04;;;;;;;;;;;;;;;30.94;56.44;101184.97;5052047;28;66333;-36
2022/12/29 12:23:42;;;;;;;;;;;;;;;30.92;57.04;101197.88;5051736;28;70299;-38
2022/12/29 12:26:19;;;;;;;;;;;;;;;30.90;57.22;101189.16;5055056;28;66896;-37
2022/12/29 12:28:53;;;;;;;;;;;;;;;30.92;57.11;101200.59;5045122;28;69561;-36
2022/12/29 12:31:39;;;;;;;;;;;;;;;30.93;56.75;101199.56;5053322;28;66879;-38
2022/12/29 12:34:37;;;;;;;;;;;;;;;30.90;57.17;101200.00;5051377;28;69837;-35
2022/12/29 12:37:15;;;;;;;;;;;;;;;30.86;57.62;101209.56;5058938;28;66706;-40
2022/12/29 12:39:46;;;;;;;;;;;;;;;30.85;57.19;101205.22;5050804;28;70535;-39
2022/12/29 12:42:27;;;;;;;;;;;;;;;30.87;57.50;101222.91;5039363;28;65694;-39
2022/12/29 12:45:16;;;;;;;;;;;;;;;30.91;58.46;101226.84;5052186;28;69200;-37
2022/12/29 12:47:59;;;;;;;;;;;;;;;30.82;59.05;101230.03;5055865;28;66569;-40
2022/12/29 12:50:42;;;;;;;;;;;;;;;30.77;60.41;101237.91;5056317;28;69129;-38
2022/12/29 12:53:26;;;;;;;;;;;;;;;30.76;61.03;101236.22;5059307;28;66779;-42
2022/12/29 12:55:57;;;;;;;;;;;;;;;30.76;61.55;101241.63;5053996;28;70235;-42
2022/12/29 12:58:37;;;;;;;;;;;;;;;30.75;61.84;101245.41;5056664;28;65612;-38
2022/12/29 13:01:25;;;;;;;;;;;;;;;30.73;61.90;101243.75;5058625;28;70359;-40
2022/12/29 13:04:14;;;;;;;;;;;;;;;30.72;62.28;101247.47;5051855;28;65737;-39
2022/12/29 13:06:55;;;;;;;;;;;;;;;30.70;62.50;101255.00;5051360;28;70049;-40
2022/12/29 13:09:45;;;;;;;;;;;;;;;30.67;62.30;101260.84;5053112;28;66093;-38
2022/12/29 13:12:30;;;;;;;;;;;;;;;30.68;62.58;101262.50;5050785;28;69353;-38
2022/12/29 13:15:22;;;;;;;;;;;;;;;30.67;62.98;101271.69;5051403;28;66000;-41
2022/12/29 13:18:00;;;;;;;;;;;;;;;30.68;62.87;101278.75;5056645;28;69843;-39
2022/12/29 13:20:48;;;;;;;;;;;;;;;30.71;62.49;101288.34;5058595;28;66701;-39
2022/12/29 13:23:25;;;;;;;;;;;;;;;30.67;62.97;101293.34;5058254;28;71273;-40
2022/12/29 13:26:11;;;;;;;;;;;;;;;30.68;62.39;101300.41;5058514;28;66053;-41
2022/12/29 13:29:00;;;;;;;;;;;;;;;30.65;62.87;101294.59;5060130;28;71267;-37
2022/12/29 13:31:54;;;;;;;;;;;;;;;30.66;62.71;101305.19;5055602;28;66637;-38
2022/12/29 13:34:43;;;;;;;;;;;;;;;30.65;62.81;101311.66;5040421;28;69242;-37
2022/12/29 13:37:16;;;;;;;;;;;;;;;30.63;62.92;101313.75;5053953;28;66812;-38
2022/12/29 13:39:56;;;;;;;;;;;;;;;30.64;62.38;101315.38;5054295;28;69830;-37
2022/12/29 13:42:28;;;;;;;;;;;;;;;30.65;63.30;101314.38;5054622;28;67134;-41
2022/12/29 13:45:01;;;;;;;;;;;;;;;30.69;63.41;101317.47;5055391;28;68948;-39
2022/12/29 13:47:38;;;;;;;;;;;;;;;30.72;64.00;101323.31;5047869;28;66293;-37
2022/12/29 13:50:14;;;;;;;;;;;;;;;30.75;63.73;101318.53;5063773;27;69634;-39
2022/12/29 13:52:46;;;;;;;;;;;;;;;30.75;64.12;101322.06;5054575;28;66016;-38
2022/12/29 13:55:29;;;;;;;;;;;;;;;30.77;64.18;101324.56;5055101;28;70490;-40
2022/12/29 13:58:18;;;;;;;;;;;;;;;30.81;63.70;101329.38;5051761;28;66309;-42